Time;durP1;ratioP1;P1;durP2;ratioP2;P2;SDS_P1;SDS_P2;PMS_P1;PMS_P2;Temp;Humidity;BMP_temperature;BMP_pressure;BME280_temperature;BME280_humidity;BME280_pressure;Samples;Min_cycle;Max_cycle;Signal;HPM_P1;HPM_P2
2022/08/30 00:02:59;;;;;;;3.57;1.73;;;21.20;54.80;;;;;;5066630;28;20067;-79
2022/08/30 00:05:26;;;;;;;3.25;2.00;;;21.20;54.50;;;;;;5075307;28;20276;-79
2022/08/30 00:07:52;;;;;;;3.70;1.77;;;21.20;55.00;;;;;;5063092;28;20088;-79
2022/08/30 00:10:18;;;;;;;3.75;1.98;;;21.10;54.90;;;;;;5062673;28;20254;-79
2022/08/30 00:12:44;;;;;;;2.50;1.47;;;21.10;55.10;;;;;;5060108;28;20445;-79
2022/08/30 00:15:12;;;;;;;3.80;2.00;;;21.10;55.20;;;;;;5055428;28;20178;-79
2022/08/30 00:17:38;;;;;;;4.05;1.83;;;21.00;55.50;;;;;;5049115;28;20054;-79
2022/08/30 00:20:06;;;;;;;4.13;1.90;;;21.00;55.50;;;;;;5055524;28;20499;-79
2022/08/30 00:22:32;;;;;;;4.22;2.00;;;21.00;55.80;;;;;;5060967;28;20241;-79
2022/08/30 00:25:00;;;;;;;4.13;1.80;;;21.00;55.70;;;;;;5059670;28;20020;-79
2022/08/30 00:27:27;;;;;;;3.83;2.00;;;21.00;56.00;;;;;;5074006;28;20231;-79
2022/08/30 00:29:53;;;;;;;2.55;1.70;;;21.00;55.90;;;;;;5058414;28;20027;-79
2022/08/30 00:32:20;;;;;;;4.38;1.90;;;21.00;56.10;;;;;;5047963;28;20455;-79
2022/08/30 00:34:47;;;;;;;3.40;1.60;;;20.90;56.10;;;;;;5063209;28;20024;-79
2022/08/30 00:37:13;;;;;;;4.25;1.77;;;20.90;56.30;;;;;;5065104;28;20024;-80
2022/08/30 00:39:39;;;;;;;5.40;1.98;;;20.90;56.30;;;;;;5064756;28;20099;-79
2022/08/30 00:42:05;;;;;;;3.90;1.90;;;20.90;56.40;;;;;;5071032;28;20194;-79
2022/08/30 00:44:31;;;;;;;3.33;1.80;;;20.90;56.60;;;;;;5049410;28;20293;-79
2022/08/30 00:46:57;;;;;;;3.08;1.90;;;20.90;56.70;;;;;;5065682;28;20190;-79
2022/08/30 00:49:24;;;;;;;2.75;1.73;;;20.90;56.70;;;;;;5041237;28;20052;-79
2022/08/30 00:51:51;;;;;;;3.30;1.93;;;20.90;56.90;;;;;;5066293;28;20249;-79
2022/08/30 00:54:17;;;;;;;3.50;1.80;;;20.90;57.10;;;;;;5050694;28;20020;-79
2022/08/30 00:56:45;;;;;;;3.03;1.75;;;20.90;57.20;;;;;;5056355;28;20385;-79
2022/08/30 00:59:11;;;;;;;3.42;1.48;;;20.90;57.30;;;;;;5030798;28;20024;-79
2022/08/30 01:01:37;;;;;;;2.37;1.83;;;20.90;57.30;;;;;;5073786;28;20051;-79
2022/08/30 01:04:05;;;;;;;3.35;1.88;;;20.90;57.30;;;;;;5058726;28;20507;-79
2022/08/30 01:06:33;;;;;;;3.63;2.03;;;20.90;57.70;;;;;;5064356;28;20115;-79
2022/08/30 01:09:00;;;;;;;4.55;2.10;;;20.80;57.40;;;;;;5073251;28;20024;-79
2022/08/30 01:11:27;;;;;;;4.30;1.90;;;20.80;57.50;;;;;;5063497;28;21350;-79
2022/08/30 01:13:54;;;;;;;4.27;2.10;;;20.80;57.40;;;;;;5071997;28;20707;-79
2022/08/30 01:16:21;;;;;;;4.28;1.95;;;20.80;57.70;;;;;;5049005;28;20482;-79
2022/08/30 01:18:49;;;;;;;2.90;2.00;;;20.80;57.90;;;;;;5058317;28;22268;-79
2022/08/30 01:21:26;;;;;;;4.15;2.03;;;20.70;58.00;;;;;;5046521;28;20544;-79
2022/08/30 01:23:55;;;;;;;4.53;2.05;;;20.70;57.90;;;;;;5056560;28;20407;-79
2022/08/30 01:26:21;;;;;;;3.83;2.00;;;20.70;58.00;;;;;;5070393;28;20020;-80
2022/08/30 01:28:51;;;;;;;4.65;2.28;;;20.70;58.00;;;;;;5054631;28;20460;-79
2022/08/30 01:31:17;;;;;;;3.65;2.00;;;20.70;58.40;;;;;;5053036;28;20698;-79
2022/08/30 01:33:43;;;;;;;3.15;2.10;;;20.60;58.20;;;;;;5074131;28;20547;-79
2022/08/30 01:36:12;;;;;;;4.23;2.07;;;20.60;58.30;;;;;;5042867;28;20560;-79
2022/08/30 01:38:50;;;;;;;3.30;1.98;;;20.70;58.70;;;;;;5076039;28;20031;-79
2022/08/30 01:41:32;;;;;;;4.25;2.00;;;20.60;59.80;;;;;;5061176;28;20048;-79
2022/08/30 01:44:00;;;;;;;3.88;2.10;;;20.60;60.10;;;;;;5052289;28;20598;-79
2022/08/30 01:46:34;;;;;;;3.45;2.13;;;20.60;59.00;;;;;;5054550;28;20628;-79
2022/08/30 01:49:04;;;;;;;3.67;1.90;;;20.60;59.00;;;;;;5067811;28;20605;-79
2022/08/30 01:51:30;;;;;;;4.07;2.17;;;20.60;59.10;;;;;;5056477;28;20084;-79
2022/08/30 01:53:57;;;;;;;3.50;2.10;;;20.60;59.00;;;;;;5063488;28;20515;-79
2022/08/30 01:56:24;;;;;;;3.22;2.03;;;20.50;59.20;;;;;;5060026;28;20649;-79
2022/08/30 01:58:52;;;;;;;2.97;1.77;;;20.50;59.30;;;;;;5072483;28;20031;-79
2022/08/30 02:01:22;;;;;;;4.20;2.13;;;20.50;59.40;;;;;;5057646;28;20615;-79
2022/08/30 02:03:48;;;;;;;3.45;2.00;;;20.60;59.60;;;;;;5071570;28;20097;-79
2022/08/30 02:06:17;;;;;;;2.92;1.95;;;20.50;59.50;;;;;;5059319;28;20233;-79
2022/08/30 02:08:43;;;;;;;4.50;2.30;;;20.50;60.00;;;;;;5060403;28;20428;-79
2022/08/30 02:11:10;;;;;;;3.75;2.08;;;20.60;59.60;;;;;;5071780;28;20148;-79
2022/08/30 02:13:39;;;;;;;3.40;2.07;;;20.50;59.70;;;;;;5055594;28;20032;-79
2022/08/30 02:16:08;;;;;;;3.63;2.10;;;20.60;59.80;;;;;;5073406;28;20119;-79
2022/08/30 02:18:35;;;;;;;2.72;1.88;;;20.50;59.80;;;;;;5054243;28;20036;-79
2022/08/30 02:21:01;;;;;;;4.45;2.20;;;20.50;59.70;;;;;;5062509;28;20066;-79
2022/08/30 02:23:27;;;;;;;4.57;2.00;;;20.50;59.60;;;;;;5050643;28;20407;-78
2022/08/30 02:25:53;;;;;;;5.57;1.77;;;20.50;59.60;;;;;;5067692;28;20277;-79
2022/08/30 02:28:19;;;;;;;3.45;1.92;;;20.40;59.60;;;;;;5054797;28;20331;-79
2022/08/30 02:30:46;;;;;;;3.50;1.73;;;20.40;59.60;;;;;;5070048;28;20028;-79
2022/08/30 02:33:13;;;;;;;3.30;1.88;;;20.30;59.70;;;;;;5050654;28;20135;-79
2022/08/30 02:35:39;;;;;;;3.08;1.85;;;20.30;59.70;;;;;;5058868;28;20028;-79
2022/08/30 02:38:06;;;;;;;3.17;1.87;;;20.20;59.60;;;;;;5046573;28;20039;-79
2022/08/30 02:40:32;;;;;;;3.72;1.90;;;20.20;59.70;;;;;;5071335;28;20402;-79
2022/08/30 02:42:58;;;;;;;3.33;1.70;;;20.10;59.70;;;;;;5075174;28;20028;-78
2022/08/30 02:45:24;;;;;;;3.23;1.80;;;20.10;59.80;;;;;;5073746;28;20546;-79
2022/08/30 02:47:51;;;;;;;3.88;1.88;;;20.10;59.90;;;;;;5073658;28;20020;-79
2022/08/30 02:50:17;;;;;;;3.22;1.88;;;20.00;59.90;;;;;;5050398;28;20571;-79
2022/08/30 02:52:43;;;;;;;3.00;2.05;;;20.00;59.90;;;;;;5062034;28;20020;-79
2022/08/30 02:55:09;;;;;;;4.63;1.93;;;20.00;60.00;;;;;;5061404;28;20814;-79
2022/08/30 02:57:34;;;;;;;2.95;1.70;;;19.90;60.10;;;;;;5082401;28;20020;-79
2022/08/30 03:00:00;;;;;;;3.50;1.77;;;19.90;60.10;;;;;;5063803;28;20031;-79
2022/08/30 03:02:27;;;;;;;3.63;1.90;;;19.80;60.10;;;;;;5063526;28;20181;-79
2022/08/30 03:04:53;;;;;;;5.13;1.90;;;19.80;60.30;;;;;;5064503;28;20784;-79
2022/08/30 03:07:19;;;;;;;3.15;1.65;;;19.80;60.30;;;;;;5065351;28;20040;-79
2022/08/30 03:09:44;;;;;;;4.20;1.83;;;19.70;60.40;;;;;;5047206;28;20016;-79
2022/08/30 03:12:11;;;;;;;2.95;1.70;;;19.80;60.40;;;;;;5065426;28;20125;-79
2022/08/30 03:14:38;;;;;;;3.20;1.70;;;19.70;60.50;;;;;;5054891;28;20113;-79
2022/08/30 03:17:06;;;;;;;4.15;2.00;;;19.60;60.60;;;;;;5076847;28;20035;-79
2022/08/30 03:19:32;;;;;;;3.70;1.92;;;19.60;60.90;;;;;;5046446;28;20127;-79
2022/08/30 03:21:58;;;;;;;3.90;2.08;;;19.60;60.90;;;;;;5075117;28;20028;-79
2022/08/30 03:24:24;;;;;;;3.20;1.90;;;19.60;61.10;;;;;;5063004;28;20036;-79
2022/08/30 03:26:51;;;;;;;2.47;1.75;;;19.50;61.10;;;;;;5068384;28;20085;-79
2022/08/30 03:29:17;;;;;;;2.65;1.70;;;19.50;61.10;;;;;;5069947;28;20146;-79
2022/08/30 03:31:42;;;;;;;2.30;1.70;;;19.50;61.10;;;;;;5076112;28;20115;-78
2022/08/30 03:34:09;;;;;;;3.05;1.70;;;19.50;61.10;;;;;;5060597;28;20334;-79
2022/08/30 03:36:37;;;;;;;4.63;1.88;;;19.40;61.20;;;;;;5056907;28;20027;-78
2022/08/30 03:39:04;;;;;;;4.80;2.00;;;19.40;61.30;;;;;;5053235;28;20032;-79
2022/08/30 03:41:31;;;;;;;4.35;1.88;;;19.40;61.40;;;;;;5064153;28;20082;-79
2022/08/30 03:43:57;;;;;;;3.13;1.77;;;19.30;61.30;;;;;;5083532;28;20016;-79
2022/08/30 03:46:23;;;;;;;3.35;2.05;;;19.30;61.50;;;;;;5078438;28;20142;-79
2022/08/30 03:48:50;;;;;;;3.47;2.22;;;19.30;61.60;;;;;;5064953;28;20047;-79
2022/08/30 03:51:17;;;;;;;3.60;2.10;;;19.20;61.70;;;;;;5040689;28;20038;-79
2022/08/30 03:53:43;;;;;;;5.03;2.00;;;19.20;61.90;;;;;;5074496;28;20499;-79
2022/08/30 03:56:09;;;;;;;2.33;1.77;;;19.20;61.90;;;;;;5043713;28;20290;-79
2022/08/30 03:58:35;;;;;;;5.05;2.08;;;19.20;62.10;;;;;;5071701;28;20031;-79
2022/08/30 04:01:01;;;;;;;2.72;1.67;;;19.20;62.30;;;;;;5060045;28;20518;-78
2022/08/30 04:03:28;;;;;;;6.27;1.97;;;19.20;62.50;;;;;;5077359;28;20474;-79
2022/08/30 04:05:55;;;;;;;3.60;2.05;;;19.20;62.60;;;;;;5087919;28;20081;-79
2022/08/30 04:08:21;;;;;;;3.63;1.90;;;19.20;62.80;;;;;;5060645;28;20381;-79
2022/08/30 04:10:47;;;;;;;3.58;2.30;;;19.30;62.70;;;;;;5062987;28;20027;-79
2022/08/30 04:13:14;;;;;;;5.57;2.40;;;19.30;62.80;;;;;;5051702;28;20040;-79
2022/08/30 04:15:39;;;;;;;4.32;2.30;;;19.30;63.00;;;;;;5064520;28;20029;-79
2022/08/30 04:18:05;;;;;;;5.75;2.13;;;19.40;63.00;;;;;;5066164;28;20036;-79
2022/08/30 04:20:31;;;;;;;4.88;2.40;;;19.40;63.00;;;;;;5060920;28;20028;-78
2022/08/30 04:22:57;;;;;;;2.73;2.00;;;19.40;63.10;;;;;;5058399;28;20062;-79
2022/08/30 04:25:23;;;;;;;3.75;2.10;;;19.40;63.10;;;;;;5056132;28;20021;-79
2022/08/30 04:27:49;;;;;;;3.30;2.13;;;19.40;63.20;;;;;;5048245;28;20017;-79
2022/08/30 04:30:16;;;;;;;2.97;1.90;;;19.40;63.20;;;;;;5075823;28;20025;-79
2022/08/30 04:32:43;;;;;;;2.95;1.90;;;19.40;63.30;;;;;;5062423;28;20020;-79
2022/08/30 04:35:10;;;;;;;3.45;1.92;;;19.40;63.40;;;;;;5059773;28;20052;-79
2022/08/30 04:37:37;;;;;;;4.20;2.17;;;19.40;63.40;;;;;;5055828;28;20024;-79
2022/08/30 04:40:04;;;;;;;3.60;1.90;;;19.40;63.40;;;;;;5053533;28;20032;-78
2022/08/30 04:42:32;;;;;;;3.15;1.88;;;19.40;63.50;;;;;;5063950;28;20024;-79
2022/08/30 04:45:01;;;;;;;3.03;1.92;;;19.40;63.70;;;;;;5076000;28;20111;-79
2022/08/30 04:47:26;;;;;;;3.70;1.98;;;19.30;64.30;;;;;;5066850;28;20038;-79
2022/08/30 04:49:52;;;;;;;3.00;1.87;;;19.40;63.60;;;;;;5061960;28;20025;-79
2022/08/30 04:52:18;;;;;;;3.53;2.10;;;19.30;63.70;;;;;;5050176;28;20189;-78
2022/08/30 04:54:44;;;;;;;3.10;1.92;;;19.40;63.80;;;;;;5062964;28;20058;-79
2022/08/30 04:57:10;;;;;;;3.07;2.10;;;19.40;63.90;;;;;;5053169;28;20281;-79
2022/08/30 04:59:37;;;;;;;3.80;2.17;;;19.30;64.00;;;;;;5066528;28;20081;-79
2022/08/30 05:02:04;;;;;;;3.60;2.10;;;19.40;64.30;;;;;;5053011;28;20044;-78
2022/08/30 05:04:29;;;;;;;2.90;2.10;;;19.40;64.20;;;;;;5053511;28;20485;-79
2022/08/30 05:06:55;;;;;;;3.45;2.40;;;19.40;64.20;;;;;;5040644;28;20075;-79
2022/08/30 05:09:21;;;;;;;3.20;1.90;;;19.30;64.20;;;;;;5036805;28;20029;-79
2022/08/30 05:11:47;;;;;;;2.72;1.80;;;19.40;64.40;;;;;;5045620;28;20389;-79
2022/08/30 05:14:13;;;;;;;3.50;2.17;;;19.40;64.40;;;;;;5062428;28;20027;-79
2022/08/30 05:16:40;;;;;;;3.88;2.25;;;19.40;64.40;;;;;;5069127;28;20343;-79
2022/08/30 05:19:06;;;;;;;3.27;1.93;;;19.30;64.50;;;;;;5063197;28;20074;-79
2022/08/30 05:21:32;;;;;;;3.05;2.00;;;19.40;64.50;;;;;;5064788;28;20423;-79
2022/08/30 05:23:59;;;;;;;3.90;2.08;;;19.40;64.50;;;;;;5046994;28;20054;-78
2022/08/30 05:26:31;;;;;;;3.20;2.17;;;19.30;64.70;;;;;;5059842;28;20381;-78
2022/08/30 05:28:57;;;;;;;2.90;2.00;;;19.40;65.30;;;;;;5059533;28;20035;-79
2022/08/30 05:31:29;;;;;;;4.03;2.00;;;19.40;64.70;;;;;;5062110;28;20560;-78
2022/08/30 05:33:55;;;;;;;3.67;1.90;;;19.40;65.20;;;;;;5045625;28;20662;-79
2022/08/30 05:36:24;;;;;;;4.80;2.30;;;19.40;64.80;;;;;;5056775;28;20421;-79
2022/08/30 05:38:50;;;;;;;3.55;2.10;;;19.40;65.00;;;;;;5056486;28;20496;-78
2022/08/30 05:41:18;;;;;;;3.87;2.00;;;19.40;64.90;;;;;;5049754;28;20440;-78
2022/08/30 05:43:44;;;;;;;3.80;2.10;;;19.40;65.10;;;;;;5079511;28;20050;-79
2022/08/30 05:46:12;;;;;;;3.35;2.10;;;19.40;64.90;;;;;;5064992;28;20017;-78
2022/08/30 05:48:39;;;;;;;3.30;2.33;;;19.30;65.00;;;;;;5056761;28;20250;-78
2022/08/30 05:51:09;;;;;;;4.73;2.20;;;19.40;65.00;;;;;;5055038;28;20025;-78
2022/08/30 05:53:35;;;;;;;4.80;2.42;;;19.30;65.20;;;;;;5054969;28;20377;-78
2022/08/30 05:56:03;;;;;;;3.05;2.15;;;19.40;65.20;;;;;;5053305;28;20028;-78
2022/08/30 05:58:30;;;;;;;4.03;2.33;;;19.40;65.40;;;;;;5041623;28;20370;-79
2022/08/30 06:00:55;;;;;;;3.40;2.30;;;19.40;65.40;;;;;;5041823;28;20036;-78
2022/08/30 06:03:22;;;;;;;5.07;2.57;;;19.40;65.40;;;;;;5064219;28;20039;-79
2022/08/30 06:05:47;;;;;;;3.53;2.30;;;19.50;65.50;;;;;;5046520;28;20017;-78
2022/08/30 06:08:13;;;;;;;4.80;2.38;;;19.50;65.50;;;;;;5077428;28;20031;-79
2022/08/30 06:10:39;;;;;;;3.60;2.33;;;19.50;65.60;;;;;;5022593;28;20253;-79
2022/08/30 06:13:05;;;;;;;3.70;2.60;;;19.50;65.70;;;;;;5061492;28;20423;-79
2022/08/30 06:15:31;;;;;;;5.13;2.10;;;19.60;65.90;;;;;;5074249;28;20028;-79
2022/08/30 06:17:56;;;;;;;5.03;2.50;;;19.60;65.90;;;;;;5064631;28;20020;-79
2022/08/30 06:20:22;;;;;;;3.55;2.47;;;19.70;66.00;;;;;;5030383;28;20622;-79
2022/08/30 06:22:48;;;;;;;4.43;2.43;;;19.70;66.20;;;;;;5079378;28;20056;-78
2022/08/30 06:25:15;;;;;;;5.22;2.45;;;19.80;66.20;;;;;;5054843;28;20412;-79
2022/08/30 06:27:41;;;;;;;3.28;2.45;;;19.90;66.20;;;;;;5053780;28;20039;-79
2022/08/30 06:30:09;;;;;;;4.35;2.80;;;19.90;66.00;;;;;;5057224;28;20058;-79
2022/08/30 06:32:37;;;;;;;4.07;2.50;;;20.00;66.20;;;;;;5046208;28;21164;-78
2022/08/30 06:35:04;;;;;;;5.85;2.55;;;20.10;66.20;;;;;;5071027;28;20436;-79
2022/08/30 06:37:31;;;;;;;3.47;2.50;;;20.10;66.10;;;;;;5049275;28;20866;-78
2022/08/30 06:39:59;;;;;;;3.63;2.33;;;20.20;66.00;;;;;;5072645;28;20520;-79
2022/08/30 06:42:30;;;;;;;4.30;2.53;;;20.30;66.10;;;;;;5035857;28;20672;-79
2022/08/30 06:45:03;;;;;;;5.30;2.77;;;20.40;66.00;;;;;;5057220;28;20296;-79
2022/08/30 06:47:29;;;;;;;4.20;2.55;;;20.40;66.40;;;;;;5065041;28;20645;-79
2022/08/30 06:49:56;;;;;;;4.32;2.60;;;20.50;65.80;;;;;;5079881;28;20111;-79
2022/08/30 06:52:22;;;;;;;3.63;2.47;;;20.60;66.60;;;;;;5060271;28;20212;-79
2022/08/30 06:54:48;;;;;;;4.68;2.70;;;20.60;65.90;;;;;;5057992;28;20020;-79
2022/08/30 06:57:14;;;;;;;4.47;2.60;;;20.70;65.70;;;;;;5024327;28;20052;-79
2022/08/30 06:59:39;;;;;;;4.00;2.40;;;20.80;65.90;;;;;;5050590;28;20036;-78
2022/08/30 07:02:06;;;;;;;4.13;2.67;;;20.80;65.80;;;;;;5055567;28;20075;-79
2022/08/30 07:04:32;;;;;;;4.00;2.72;;;20.90;65.90;;;;;;5056209;28;20156;-79
2022/08/30 07:06:58;;;;;;;3.72;3.03;;;21.00;65.80;;;;;;5039597;28;20711;-78
2022/08/30 07:09:24;;;;;;;4.38;2.30;;;21.10;65.90;;;;;;5057327;28;20255;-78
2022/08/30 07:11:51;;;;;;;4.72;2.42;;;21.20;65.70;;;;;;5045584;28;20070;-79
2022/08/30 07:14:18;;;;;;;5.07;2.77;;;21.20;65.60;;;;;;5046019;28;20051;-79
2022/08/30 07:16:44;;;;;;;3.70;2.58;;;21.30;65.70;;;;;;5067193;28;20067;-78
2022/08/30 07:19:10;;;;;;;4.65;2.78;;;21.40;65.60;;;;;;5033029;28;20067;-78
2022/08/30 07:21:39;;;;;;;4.22;2.72;;;21.50;65.50;;;;;;5065772;28;20024;-79
2022/08/30 07:24:06;;;;;;;3.78;2.50;;;21.60;65.40;;;;;;5033240;28;20388;-78
2022/08/30 07:26:38;;;;;;;3.30;2.70;;;21.70;65.30;;;;;;5057484;28;20025;-79
2022/08/30 07:29:04;;;;;;;3.80;2.83;;;21.80;65.30;;;;;;5051663;28;20043;-78
2022/08/30 07:31:33;;;;;;;4.28;2.55;;;21.90;65.40;;;;;;5058495;28;20071;-79
2022/08/30 07:33:58;;;;;;;5.32;2.60;;;22.10;65.50;;;;;;5067363;28;20328;-79
2022/08/30 07:36:24;;;;;;;3.83;2.63;;;22.20;65.30;;;;;;5046932;28;20662;-78
2022/08/30 07:38:51;;;;;;;4.50;3.00;;;22.40;65.10;;;;;;5059558;28;20036;-80
2022/08/30 07:41:20;;;;;;;3.90;2.67;;;22.50;64.80;;;;;;5056458;28;20035;-78
2022/08/30 07:43:46;;;;;;;4.15;2.58;;;22.60;64.60;;;;;;5038741;28;20118;-79
2022/08/30 07:46:12;;;;;;;5.10;2.72;;;22.70;64.60;;;;;;5025467;28;20056;-78
2022/08/30 07:48:38;;;;;;;4.22;2.63;;;22.80;64.60;;;;;;5068815;28;20420;-79
2022/08/30 07:51:08;;;;;;;4.90;2.90;;;23.00;64.50;;;;;;5056965;28;20551;-78
2022/08/30 07:53:34;;;;;;;3.20;2.47;;;23.10;64.10;;;;;;5038914;28;20489;-79
2022/08/30 07:55:59;;;;;;;4.28;2.78;;;23.20;63.90;;;;;;5062950;28;20070;-79
2022/08/30 07:58:25;;;;;;;4.87;2.77;;;23.40;63.60;;;;;;5031859;28;20059;-79
2022/08/30 08:00:51;;;;;;;3.38;2.60;;;23.40;63.20;;;;;;5018962;28;20068;-78
2022/08/30 08:03:17;;;;;;;3.07;2.50;;;23.60;63.00;;;;;;5057495;28;20085;-78
2022/08/30 08:05:44;;;;;;;3.75;2.60;;;23.60;62.80;;;;;;5052604;28;20016;-79
2022/08/30 08:08:12;;;;;;;5.47;2.60;;;23.70;62.80;;;;;;5066524;28;20055;-78
2022/08/30 08:10:40;;;;;;;4.10;2.70;;;23.80;62.80;;;;;;5046073;28;20020;-78
2022/08/30 08:13:06;;;;;;;3.60;2.45;;;24.00;62.90;;;;;;5039900;28;20028;-79
2022/08/30 08:15:32;;;;;;;3.45;2.60;;;24.10;63.30;;;;;;5052278;28;20024;-78
2022/08/30 08:17:57;;;;;;;4.23;2.60;;;24.40;63.70;;;;;;5050885;28;20035;-78
2022/08/30 08:20:24;;;;;;;4.53;2.53;;;24.70;64.10;;;;;;5057020;28;20043;-78
2022/08/30 08:22:50;;;;;;;4.43;2.60;;;25.00;64.20;;;;;;5055412;28;20365;-78
2022/08/30 08:25:16;;;;;;;3.37;2.40;;;25.40;64.10;;;;;;5046110;28;20028;-78
2022/08/30 08:27:45;;;;;;;3.97;2.40;;;25.70;63.80;;;;;;5045389;28;20047;-78
2022/08/30 08:30:11;;;;;;;4.13;2.20;;;26.10;63.70;;;;;;5049488;28;20103;-79
2022/08/30 08:32:36;;;;;;;2.90;2.40;;;26.60;63.70;;;;;;5026825;28;20063;-79
2022/08/30 08:35:03;;;;;;;4.13;2.60;;;26.90;63.10;;;;;;5058774;28;20067;-79
2022/08/30 08:37:28;;;;;;;3.83;2.72;;;27.30;62.50;;;;;;5051260;28;20028;-78
2022/08/30 08:39:54;;;;;;;4.03;2.50;;;27.80;61.40;;;;;;5062024;28;20032;-79
2022/08/30 08:42:38;;;;;;;2.60;2.13;;;28.00;60.50;;;;;;5069726;28;20133;-79
2022/08/30 08:45:12;;;;;;;2.78;1.98;;;28.40;58.90;;;;;;5058556;28;20112;-79
2022/08/30 08:47:54;;;;;;;3.35;2.30;;;28.70;59.30;;;;;;5022760;28;20097;-78
2022/08/30 08:50:21;;;;;;;3.53;1.90;;;29.00;59.20;;;;;;5045394;28;20084;-79
2022/08/30 08:55:49;;;;;;;3.42;2.20;;;29.80;57.50;;;;;;5066505;28;20016;-79
2022/08/30 08:58:23;;;;;;;2.85;2.22;;;30.20;57.20;;;;;;5068583;28;20036;-78
2022/08/30 09:00:50;;;;;;;2.90;1.95;;;30.60;56.50;;;;;;5043352;28;22130;-79
2022/08/30 09:03:18;;;;;;;3.30;1.90;;;30.80;56.20;;;;;;5022608;28;20111;-78
2022/08/30 09:05:46;;;;;;;3.50;1.93;;;31.00;54.70;;;;;;5060495;28;20213;-79
2022/08/30 09:08:15;;;;;;;4.10;1.98;;;31.10;54.40;;;;;;5067269;28;20140;-79
2022/08/30 09:10:57;;;;;;;3.45;1.92;;;31.40;53.80;;;;;;5054289;28;20127;-79
2022/08/30 09:13:24;;;;;;;2.53;1.80;;;31.60;52.90;;;;;;5059282;28;20019;-79
2022/08/30 09:15:52;;;;;;;2.88;1.75;;;31.70;52.90;;;;;;5050486;28;20467;-79
2022/08/30 09:18:18;;;;;;;3.03;2.00;;;31.90;52.20;;;;;;5056690;28;20032;-79
2022/08/30 09:20:48;;;;;;;2.85;1.60;;;32.00;51.80;;;;;;5045430;28;20531;-79
2022/08/30 09:23:14;;;;;;;3.55;1.88;;;32.20;51.50;;;;;;5077035;28;20051;-79
2022/08/30 09:26:00;;;;;;;2.60;1.80;;;32.30;51.60;;;;;;5053586;28;20059;-79
2022/08/30 09:28:32;;;;;;;3.63;2.00;;;32.50;50.00;;;;;;5074398;28;20114;-79
2022/08/30 09:31:18;;;;;;;3.38;1.80;;;32.80;50.50;;;;;;5054645;28;20021;-79
2022/08/30 09:34:06;;;;;;;3.83;1.90;;;33.00;49.10;;;;;;5035064;28;20031;-79
2022/08/30 09:36:54;;;;;;;3.05;2.20;;;33.20;47.90;;;;;;5033237;28;20028;-79
2022/08/30 09:39:29;;;;;;;2.27;1.70;;;33.40;47.40;;;;;;5067634;28;20435;-79
2022/08/30 09:42:11;;;;;;;2.58;1.73;;;33.50;48.00;;;;;;5051271;28;20625;-79
2022/08/30 09:44:37;;;;;;;3.08;1.67;;;33.70;47.30;;;;;;5079675;28;20020;-79
2022/08/30 09:47:05;;;;;;;2.47;1.73;;;33.80;48.20;;;;;;5046220;28;20679;-79
2022/08/30 09:49:33;;;;;;;2.70;1.80;;;33.80;46.90;;;;;;5057886;28;20050;-79
2022/08/30 09:52:05;;;;;;;2.40;1.70;;;33.90;46.10;;;;;;5033899;28;20497;-78
2022/08/30 09:54:38;;;;;;;4.65;2.13;;;34.00;45.70;;;;;;5075991;28;20035;-78
2022/08/30 09:57:17;;;;;;;2.35;1.70;;;34.00;45.00;;;;;;5056338;28;20786;-79
2022/08/30 10:00:13;;;;;;;2.58;1.83;;;34.00;44.30;;;;;;5082514;28;20411;-79
2022/08/30 10:03:16;;;;;;;2.35;1.75;;;34.00;43.90;;;;;;5077476;28;20432;-78
2022/08/30 10:06:03;;;;;;;2.27;1.70;;;34.00;44.00;;;;;;5066365;28;20024;-79
2022/08/30 10:08:54;;;;;;;4.43;1.90;;;34.10;43.80;;;;;;5062977;28;20024;-78
2022/08/30 10:11:36;;;;;;;2.28;1.70;;;34.10;44.20;;;;;;5068703;28;20036;-78
2022/08/30 10:14:04;;;;;;;2.72;1.60;;;34.10;42.90;;;;;;5059679;28;20051;-80
2022/08/30 10:16:33;;;;;;;5.53;1.88;;;34.10;43.60;;;;;;5048792;28;20051;-79
2022/08/30 10:19:24;;;;;;;2.50;1.63;;;34.10;43.00;;;;;;5061076;28;20031;-78
2022/08/30 10:22:14;;;;;;;3.00;1.50;;;34.10;42.30;;;;;;5059518;28;20048;-79
2022/08/30 10:24:49;;;;;;;2.67;1.83;;;34.10;42.90;;;;;;5045088;28;20318;-79
2022/08/30 10:27:28;;;;;;;2.78;1.70;;;34.10;42.40;;;;;;5066265;28;20016;-79
2022/08/30 10:30:02;;;;;;;3.17;2.20;;;34.20;41.90;;;;;;5064577;28;20063;-79
2022/08/30 10:32:36;;;;;;;2.87;1.70;;;34.30;41.90;;;;;;5054460;28;20542;-79
2022/08/30 10:35:11;;;;;;;2.58;1.63;;;34.30;42.10;;;;;;5058479;28;20028;-79
2022/08/30 10:37:47;;;;;;;2.67;1.80;;;34.20;41.30;;;;;;5063743;28;20600;-79
2022/08/30 10:43:32;;;;;;;2.25;1.55;;;34.10;40.60;;;;;;5061396;28;20035;-79
2022/08/30 10:46:02;;;;;;;2.03;1.57;;;34.10;40.80;;;;;;5079517;28;20495;-79
2022/08/30 10:48:39;;;;;;;4.32;1.60;;;34.10;41.20;;;;;;5020522;28;20028;-79
2022/08/30 10:51:13;;;;;;;3.42;1.50;;;34.00;39.90;;;;;;5061572;28;20044;-79
2022/08/30 10:53:56;;;;;;;2.88;1.70;;;33.90;40.30;;;;;;5056946;28;20035;-79
2022/08/30 10:56:25;;;;;;;2.13;1.50;;;33.90;40.30;;;;;;5044925;28;20595;-78
2022/08/30 10:58:53;;;;;;;3.77;1.70;;;33.90;41.10;;;;;;5057485;28;20043;-78
2022/08/30 11:01:33;;;;;;;4.13;1.70;;;34.00;41.30;;;;;;5064291;28;20477;-78
2022/08/30 11:04:18;;;;;;;3.35;1.80;;;34.00;40.00;;;;;;5022295;28;20122;-79
2022/08/30 11:07:06;;;;;;;2.35;1.83;;;34.20;40.30;;;;;;5052426;28;20635;-78
2022/08/30 11:10:04;;;;;;;2.35;1.77;;;34.30;39.70;;;;;;5051338;28;20028;-79
2022/08/30 11:12:38;;;;;;;2.57;1.93;;;34.50;40.30;;;;;;5061317;28;20115;-79
2022/08/30 11:15:15;;;;;;;3.25;1.85;;;34.60;39.60;;;;;;5063874;28;20385;-79
2022/08/30 11:18:05;;;;;;;3.60;2.08;;;34.60;39.30;;;;;;5038185;28;20092;-78
2022/08/30 11:20:37;;;;;;;3.33;1.80;;;34.80;39.60;;;;;;5053320;28;20048;-79
2022/08/30 11:23:18;;;;;;;2.10;1.63;;;35.00;40.10;;;;;;5053847;28;20055;-79
2022/08/30 11:26:04;;;;;;;2.23;1.80;;;35.20;39.40;;;;;;5054380;28;20020;-78
2022/08/30 11:28:35;;;;;;;2.38;1.63;;;35.50;39.40;;;;;;5067515;28;20024;-79
2022/08/30 11:31:06;;;;;;;2.83;2.17;;;35.70;39.10;;;;;;5064158;28;20043;-79
2022/08/30 11:33:43;;;;;;;1.85;1.67;;;35.90;39.00;;;;;;5036740;28;20248;-79
2022/08/30 11:36:11;;;;;;;1.92;1.50;;;36.20;38.40;;;;;;5018526;28;20025;-79
2022/08/30 11:38:37;;;;;;;2.07;1.77;;;36.50;39.20;;;;;;5060093;28;20028;-79
2022/08/30 11:41:36;;;;;;;2.95;1.90;;;36.80;39.30;;;;;;5067567;28;20036;-79
2022/08/30 11:44:20;;;;;;;2.50;1.90;;;37.20;37.40;;;;;;5060028;28;20024;-79
2022/08/30 11:46:52;;;;;;;3.20;1.90;;;37.50;36.70;;;;;;5061181;28;20401;-78
2022/08/30 11:49:17;;;;;;;2.22;1.90;;;37.60;37.40;;;;;;5049886;28;20025;-79
2022/08/30 11:51:43;;;;;;;5.20;2.10;;;37.70;36.50;;;;;;5063247;28;20044;-79
2022/08/30 11:54:32;;;;;;;4.37;1.67;;;37.60;35.70;;;;;;5044742;28;20051;-79
2022/08/30 11:57:27;;;;;;;2.00;1.80;;;37.30;34.10;;;;;;5072735;28;20076;-79
2022/08/30 12:00:25;;;;;;;3.70;1.98;;;37.00;35.10;;;;;;5078508;28;20036;-79
2022/08/30 12:02:57;;;;;;;2.70;1.77;;;36.90;34.90;;;;;;5058958;28;20062;-79
2022/08/30 12:05:41;;;;;;;1.95;1.70;;;36.80;35.40;;;;;;5044046;28;20047;-78
2022/08/30 12:08:19;;;;;;;2.22;1.60;;;36.80;35.80;;;;;;5061550;28;20032;-78
2022/08/30 12:10:56;;;;;;;2.97;2.10;;;36.80;35.30;;;;;;5057178;28;20571;-79
2022/08/30 12:13:36;;;;;;;2.17;1.60;;;36.90;35.20;;;;;;5056236;28;20307;-78
2022/08/30 12:16:11;;;;;;;2.47;1.50;;;37.10;35.20;;;;;;5079168;28;20439;-79
2022/08/30 12:18:41;;;;;;;3.00;1.73;;;37.00;35.50;;;;;;5052468;28;20455;-79
2022/08/30 12:21:14;;;;;;;1.90;1.55;;;37.10;34.20;;;;;;5042016;28;20016;-79
2022/08/30 12:23:48;;;;;;;3.28;1.70;;;37.00;34.20;;;;;;5036147;28;20032;-79
2022/08/30 12:26:23;;;;;;;2.13;1.80;;;37.00;34.40;;;;;;5046534;28;20428;-79
2022/08/30 12:28:51;;;;;;;1.83;1.60;;;37.10;34.40;;;;;;5055734;28;20024;-78
2022/08/30 12:31:24;;;;;;;1.70;1.60;;;37.30;35.00;;;;;;5049702;28;21107;-79
2022/08/30 12:33:55;;;;;;;2.10;1.67;;;37.30;34.30;;;;;;5067858;28;20483;-79
2022/08/30 12:36:51;;;;;;;3.03;1.60;;;37.30;34.00;;;;;;5049657;28;20286;-79
2022/08/30 12:39:21;;;;;;;2.33;1.77;;;37.10;33.10;;;;;;5050469;28;20557;-79
2022/08/30 12:41:47;;;;;;;1.70;1.47;;;36.80;32.70;;;;;;5069649;28;20292;-79
2022/08/30 12:44:22;;;;;;;2.40;1.60;;;36.60;33.10;;;;;;5064145;28;20633;-79
2022/08/30 12:46:52;;;;;;;3.45;2.13;;;36.40;33.20;;;;;;5065185;28;20115;-79
2022/08/30 12:49:20;;;;;;;2.88;1.58;;;36.20;33.60;;;;;;5065963;28;20023;-79
2022/08/30 12:51:46;;;;;;;2.07;1.50;;;36.10;34.00;;;;;;5047298;28;20259;-79
2022/08/30 12:54:15;;;;;;;3.15;1.35;;;36.10;34.00;;;;;;5053161;28;20512;-79
2022/08/30 12:57:02;;;;;;;1.60;1.50;;;35.90;33.50;;;;;;5050289;28;20504;-79
2022/08/30 12:59:50;;;;;;;2.70;1.30;;;35.80;33.40;;;;;;5057127;28;20031;-79
2022/08/30 13:02:17;;;;;;;1.88;1.50;;;35.60;33.70;;;;;;5061817;28;20040;-78
2022/08/30 13:04:46;;;;;;;3.40;1.53;;;35.60;34.40;;;;;;5039994;28;23070;-80
2022/08/30 13:07:31;;;;;;;2.35;1.20;;;35.70;34.80;;;;;;5054402;28;20142;-79
2022/08/30 13:10:19;;;;;;;1.55;1.40;;;35.90;34.50;;;;;;5036781;28;20024;-79